Time;durP1;ratioP1;P1;durP2;ratioP2;P2;SDS_P1;SDS_P2;PMS_P1;PMS_P2;Temp;Humidity;BMP_temperature;BMP_pressure;BME280_temperature;BME280_humidity;BME280_pressure;Samples;Min_cycle;Max_cycle;Signal;HPM_P1;HPM_P2
2022/07/23 00:33:50;;;;;;;6.05;1.65;;;15.50;99.90;;;;;;6307822;22;20102;-95
2022/07/23 00:36:16;;;;;;;4.57;1.90;;;15.50;99.90;;;;;;6256612;22;20452;-95
2022/07/23 00:46:04;;;;;;;5.63;2.00;;;15.40;99.90;;;;;;6310270;22;20524;-95
2022/07/23 00:48:30;;;;;;;4.13;1.80;;;15.30;99.90;;;;;;6256579;22;20062;-93
2022/07/23 00:51:17;;;;;;;3.50;1.63;;;15.30;99.90;;;;;;6257174;22;20051;-93
2022/07/23 00:53:44;;;;;;;4.22;1.83;;;15.20;99.90;;;;;;6255859;22;20015;-92
2022/07/23 00:56:10;;;;;;;4.72;1.90;;;15.20;99.90;;;;;;6256385;22;20012;-92
2022/07/23 00:58:37;;;;;;;;;;;15.20;99.90;;;;;;6255486;22;20015;-92
2022/07/23 02:59:17;;;;;;;4.15;2.00;;;15.20;99.90;;;;;;6307929;22;20087;-94
2022/07/23 03:01:51;;;;;;;4.15;1.50;;;15.20;99.90;;;;;;6288081;22;20397;-95
2022/07/23 03:04:17;;;;;;;3.75;1.38;;;15.20;99.90;;;;;;6288137;22;20386;-93
2022/07/23 03:06:43;;;;;;;3.28;1.50;;;15.20;99.90;;;;;;6287723;22;20018;-94
2022/07/23 03:09:08;;;;;;;3.38;1.52;;;15.20;99.90;;;;;;6288343;22;20011;-94
2022/07/23 03:11:34;;;;;;;3.20;1.50;;;15.20;99.90;;;;;;6288230;22;20029;-93
2022/07/23 03:14:06;;;;;;;2.90;1.13;;;15.20;99.90;;;;;;6287819;22;20411;-94
2022/07/23 03:16:32;;;;;;;5.53;1.65;;;15.30;99.90;;;;;;6287885;22;20447;-94
2022/07/23 03:18:57;;;;;;;3.92;1.80;;;15.30;99.90;;;;;;6288198;22;20015;-94
2022/07/23 03:21:26;;;;;;;3.03;1.42;;;15.20;99.90;;;;;;6294379;22;20048;-93
2022/07/23 04:07:21;;;;;;;2.05;1.10;;;15.10;99.90;;;;;;6318242;22;20076;-96
2022/07/23 04:19:04;;;;;;;4.03;1.80;;;15.20;99.90;;;;;;6284730;22;20028;-96
2022/07/23 04:21:30;;;;;;;3.72;1.42;;;15.10;99.90;;;;;;6257744;22;20078;-91
2022/07/23 04:23:55;;;;;;;3.10;1.35;;;15.20;99.90;;;;;;6258468;22;20065;-94
2022/07/23 04:26:21;;;;;;;5.00;1.50;;;15.10;99.90;;;;;;6256952;22;20018;-91
2022/07/23 04:28:47;;;;;;;5.15;2.00;;;15.20;99.90;;;;;;6257243;22;20250;-91
2022/07/23 04:31:13;;;;;;;4.20;1.85;;;15.20;99.90;;;;;;6258190;22;20019;-92
2022/07/23 04:33:38;;;;;;;3.80;1.83;;;15.20;99.90;;;;;;6264808;22;20391;-91
2022/07/23 04:36:04;;;;;;;5.32;1.77;;;15.10;99.90;;;;;;6267750;22;20269;-96
2022/07/23 04:38:32;;;;;;;3.97;1.92;;;15.20;99.90;;;;;;6267901;22;20380;-92
2022/07/23 04:41:01;;;;;;;4.45;1.65;;;15.20;99.90;;;;;;6295251;22;20756;-93
2022/07/23 04:43:40;;;;;;;3.83;1.60;;;15.20;99.90;;;;;;6296138;22;20018;-90
2022/07/23 04:46:07;;;;;;;3.38;1.63;;;15.20;99.90;;;;;;6269687;22;20049;-90
2022/07/23 05:15:17;;;;;;;3.47;1.30;;;15.30;99.90;;;;;;6314449;22;20072;-93
2022/07/23 05:17:49;;;;;;;3.42;1.60;;;15.40;99.90;;;;;;6288601;22;20019;-94
2022/07/23 05:20:24;;;;;;;3.75;1.67;;;15.40;99.90;;;;;;6244259;22;20062;-94
2022/07/23 05:22:50;;;;;;;3.50;1.60;;;15.40;99.90;;;;;;6288053;22;20043;-95
2022/07/23 05:25:18;;;;;;;4.28;1.85;;;15.40;99.90;;;;;;6261125;22;20041;-95
2022/07/23 05:27:43;;;;;;;3.60;1.50;;;15.40;99.90;;;;;;6262010;22;20015;-93
2022/07/23 05:30:10;;;;;;;3.60;1.65;;;15.40;99.90;;;;;;6261773;22;20052;-95
2022/07/23 05:32:38;;;;;;;3.63;1.63;;;15.40;99.90;;;;;;6260684;22;20073;-92
2022/07/23 05:35:05;;;;;;;4.82;1.75;;;15.40;99.90;;;;;;6234475;22;20026;-93
2022/07/23 05:37:31;;;;;;;4.38;1.60;;;15.40;99.90;;;;;;6259416;22;20025;-94
2022/07/23 05:40:02;;;;;;;4.05;1.77;;;15.50;99.90;;;;;;6265520;22;20349;-95
2022/07/23 05:42:27;;;;;;;3.95;1.60;;;15.50;99.90;;;;;;6260717;22;20022;-93
2022/07/23 05:44:53;;;;;;;4.20;1.75;;;15.50;99.90;;;;;;6255652;22;20019;-94
2022/07/23 05:47:19;;;;;;;3.80;1.60;;;15.60;99.90;;;;;;6255721;22;20015;-94
2022/07/23 05:49:47;;;;;;;2.78;1.17;;;15.60;99.90;;;;;;6255773;22;20047;-94
2022/07/23 05:52:14;;;;;;;3.95;1.80;;;15.70;99.90;;;;;;6255485;22;20011;-94
2022/07/23 05:54:39;;;;;;;;;;;15.70;99.90;;;;;;6256146;22;20019;-94
2022/07/23 05:57:05;;;;;;;3.22;1.40;;;15.80;99.90;;;;;;6255458;22;19915;-93
2022/07/23 05:59:31;;;;;;;3.83;1.48;;;15.90;99.90;;;;;;6255793;22;20026;-94
2022/07/23 06:01:56;;;;;;;3.38;1.27;;;16.00;99.90;;;;;;6255501;22;20015;-94
2022/07/23 06:04:22;;;;;;;3.53;1.50;;;15.90;99.90;;;;;;6255468;22;20383;-94
2022/07/23 06:06:48;;;;;;;3.55;1.10;;;16.00;99.90;;;;;;6255742;22;20015;-94
2022/07/23 06:09:21;;;;;;;3.70;1.23;;;16.00;99.90;;;;;;6255517;22;20019;-95
2022/07/23 06:11:47;;;;;;;3.58;1.10;;;16.00;99.90;;;;;;6256072;22;20015;-94
2022/07/23 06:14:12;;;;;;;3.00;1.33;;;16.00;99.90;;;;;;6271880;22;20007;-93
2022/07/23 06:16:38;;;;;;;3.40;1.23;;;16.00;99.90;;;;;;6280752;22;20033;-94
2022/07/23 06:19:04;;;;;;;2.80;1.10;;;16.00;99.90;;;;;;6265215;22;20026;-92
2022/07/23 06:21:29;;;;;;;3.05;1.27;;;16.00;99.90;;;;;;6255442;22;20094;-92
2022/07/23 06:23:55;;;;;;;2.72;0.98;;;16.00;99.90;;;;;;6255554;22;20061;-96
2022/07/23 06:26:21;;;;;;;3.63;1.20;;;16.00;99.90;;;;;;6255730;22;20014;-95
2022/07/23 06:28:47;;;;;;;2.90;1.13;;;16.00;99.90;;;;;;6255567;22;20260;-94
2022/07/23 06:31:20;;;;;;;2.65;1.30;;;15.90;99.90;;;;;;6255665;22;20012;-94
2022/07/23 06:33:55;;;;;;;1.92;0.90;;;16.00;99.90;;;;;;6255575;22;20076;-95
2022/07/23 06:36:21;;;;;;;2.58;0.85;;;15.90;99.90;;;;;;6255466;22;20100;-94
2022/07/23 06:38:47;;;;;;;4.07;1.10;;;15.90;99.90;;;;;;6255410;22;20054;-95
2022/07/23 06:41:12;;;;;;;2.35;0.90;;;16.00;99.90;;;;;;6255697;22;20022;-94
2022/07/23 06:49:04;;;;;;;1.08;0.50;;;16.00;99.90;;;;;;6308304;22;20023;-95
2022/07/23 06:51:30;;;;;;;3.05;0.50;;;16.10;99.90;;;;;;6255739;22;20023;-93
2022/07/23 06:53:56;;;;;;;1.30;0.38;;;16.10;99.90;;;;;;6255427;22;20082;-94
2022/07/23 06:56:21;;;;;;;0.60;0.30;;;16.20;99.90;;;;;;6255433;22;20022;-95
2022/07/23 06:58:47;;;;;;;1.00;0.30;;;16.20;99.90;;;;;;6255275;22;20015;-94
2022/07/23 07:01:13;;;;;;;1.30;0.50;;;16.30;99.90;;;;;;6255099;22;20031;-94
2022/07/23 07:03:38;;;;;;;1.05;0.55;;;16.40;99.90;;;;;;6255429;22;20051;-92
2022/07/23 07:06:07;;;;;;;1.52;0.52;;;16.40;99.90;;;;;;6255135;22;20026;-94
2022/07/23 07:08:33;;;;;;;2.25;0.57;;;16.50;99.90;;;;;;6254951;22;20022;-94
2022/07/23 07:10:59;;;;;;;1.88;0.50;;;16.90;99.90;;;;;;6255210;22;20335;-95
2022/07/23 07:13:24;;;;;;;2.13;0.80;;;17.20;99.90;;;;;;6255583;22;20019;-93
2022/07/23 07:15:50;;;;;;;1.83;0.68;;;17.40;99.90;;;;;;6255202;22;20022;-94
2022/07/23 08:14:01;;;;;;;0.57;0.20;;;17.60;99.90;;;;;;6277483;22;20020;-93
2022/07/23 08:16:27;;;;;;;0.10;0.10;;;17.70;99.90;;;;;;6226156;22;20024;-93
2022/07/23 08:18:53;;;;;;;1.05;0.20;;;17.70;99.90;;;;;;6226124;22;20337;-93
2022/07/23 08:21:19;;;;;;;0.57;0.30;;;17.80;99.90;;;;;;6226723;22;20522;-91
2022/07/23 08:23:45;;;;;;;0.30;0.20;;;17.80;99.90;;;;;;6236546;22;20000;-92
2022/07/23 08:26:10;;;;;;;0.38;0.20;;;17.80;99.90;;;;;;6226506;22;20026;-91
2022/07/23 08:28:36;;;;;;;1.38;0.30;;;17.80;99.90;;;;;;6226127;22;20034;-93
2022/07/23 08:31:05;;;;;;;0.40;0.10;;;17.80;99.90;;;;;;6226183;22;20155;-93
2022/07/23 08:33:52;;;;;;;0.35;0.20;;;17.90;99.90;;;;;;6225973;22;20011;-92
2022/07/23 08:36:18;;;;;;;1.08;0.30;;;17.90;99.90;;;;;;6226279;22;20020;-93
2022/07/23 08:38:43;;;;;;;0.15;0.15;;;18.00;99.90;;;;;;6228081;22;20011;-92
2022/07/23 08:41:09;;;;;;;0.50;0.20;;;18.00;99.90;;;;;;6226210;22;20510;-94
2022/07/23 08:43:35;;;;;;;0.82;0.20;;;18.10;99.90;;;;;;6226927;22;20014;-94
2022/07/23 08:46:02;;;;;;;0.50;0.20;;;18.10;99.90;;;;;;6226377;22;20340;-91
2022/07/23 08:48:30;;;;;;;0.82;0.25;;;18.20;99.90;;;;;;6225733;22;20433;-93
2022/07/23 08:50:59;;;;;;;0.50;0.30;;;18.20;99.90;;;;;;6225683;22;20532;-92
2022/07/23 08:53:26;;;;;;;0.50;0.30;;;18.20;99.90;;;;;;6225519;22;20042;-93
2022/07/23 08:55:54;;;;;;;0.63;0.30;;;18.30;99.90;;;;;;6226728;22;20411;-92
2022/07/23 08:58:21;;;;;;;1.10;0.30;;;18.30;99.90;;;;;;6237545;22;20020;-91
2022/07/23 09:00:49;;;;;;;0.85;0.30;;;18.30;99.90;;;;;;6252211;22;20023;-91
2022/07/23 09:05:52;;;;;;;0.40;0.30;;;18.30;99.90;;;;;;6290012;22;20019;-95
2022/07/23 09:08:38;;;;;;;0.40;0.30;;;18.40;99.90;;;;;;6267202;22;20008;-95
2022/07/23 09:47:34;;;;;;;0.32;0.20;;;18.60;99.90;;;;;;6278461;22;20027;-92
2022/07/23 09:50:23;;;;;;;0.60;0.20;;;18.60;99.90;;;;;;6251477;22;20356;-93
2022/07/23 09:52:49;;;;;;;1.08;0.28;;;18.60;99.90;;;;;;6248719;22;20314;-90
2022/07/23 09:55:19;;;;;;;0.82;0.22;;;18.60;99.90;;;;;;6224750;22;20444;-94
2022/07/23 09:57:53;;;;;;;0.70;0.25;;;18.70;99.90;;;;;;6224925;22;20401;-93
2022/07/23 10:06:15;;;;;;;0.45;0.20;;;18.60;99.90;;;;;;6294257;22;20019;-93
2022/07/23 10:08:42;;;;;;;0.40;0.30;;;18.70;99.90;;;;;;6254627;22;20020;-94
2022/07/23 10:11:40;;;;;;;;;;;;;;;;;;;;;
2022/07/23 10:24:55;;;;;;;0.77;0.32;;;18.90;99.90;;;;;;6276221;22;20024;-90
2022/07/23 10:27:46;;;;;;;0.68;0.30;;;18.90;99.90;;;;;;6252635;22;20024;-93
2022/07/23 10:30:44;;;;;;;3.15;0.40;;;18.90;99.90;;;;;;6250487;22;20023;-92
2022/07/23 10:42:51;;;;;;;1.55;0.32;;;18.90;99.90;;;;;;6307779;22;20081;-92
2022/07/23 10:45:24;;;;;;;1.02;0.30;;;18.80;99.90;;;;;;6255014;22;20077;-91
2022/07/23 10:48:40;;;;;;;0.38;0.28;;;18.80;99.90;;;;;;6254877;22;20041;-95
2022/07/23 10:51:13;;;;;;;0.95;0.40;;;18.80;99.90;;;;;;6255003;22;20020;-94
2022/07/23 10:53:57;;;;;;;0.75;0.38;;;18.80;99.90;;;;;;6255359;22;20107;-96
2022/07/23 11:00:01;;;;;;;0.88;0.38;;;18.80;99.90;;;;;;6264302;22;20049;-93
2022/07/23 11:02:30;;;;;;;0.47;0.30;;;18.80;99.90;;;;;;6257203;22;20026;-94
2022/07/23 11:05:01;;;;;;;1.58;0.45;;;18.90;99.90;;;;;;6257081;22;20042;-95
2022/07/23 11:08:04;;;;;;;0.75;0.43;;;18.90;99.90;;;;;;6260755;22;20015;-92
2022/07/23 11:10:44;;;;;;;2.08;0.40;;;19.00;99.90;;;;;;6288752;22;20019;-94
2022/07/23 11:13:22;;;;;;;0.88;0.40;;;19.10;99.90;;;;;;6257118;22;20015;-95
2022/07/23 11:16:05;;;;;;;0.50;0.30;;;19.10;99.90;;;;;;6256977;22;20016;-94
2022/07/23 11:47:56;;;;;;;1.33;0.50;;;19.40;99.90;;;;;;6309995;22;20024;-92
2022/07/23 11:50:25;;;;;;;1.40;0.40;;;19.30;99.90;;;;;;6267821;22;20014;-90
2022/07/23 11:52:51;;;;;;;0.90;0.52;;;19.40;99.90;;;;;;6280167;22;20019;-89
2022/07/23 11:55:41;;;;;;;0.93;0.50;;;19.40;99.90;;;;;;6261637;22;20054;-93
2022/07/23 11:58:07;;;;;;;0.82;0.40;;;19.40;99.90;;;;;;6256194;22;20011;-91
2022/07/23 12:00:34;;;;;;;1.23;0.60;;;19.30;99.90;;;;;;6281891;22;20058;-90
2022/07/23 12:03:03;;;;;;;1.05;0.50;;;19.30;99.90;;;;;;6256593;22;20019;-92
2022/07/23 12:05:36;;;;;;;1.25;0.45;;;19.30;99.90;;;;;;6256512;22;20016;-89
2022/07/23 12:08:05;;;;;;;1.23;0.60;;;19.30;99.90;;;;;;6282104;22;20007;-93
2022/07/23 12:11:24;;;;;;;0.70;0.50;;;19.30;99.90;;;;;;6258970;22;20094;-94
2022/07/23 12:14:44;;;;;;;1.38;0.47;;;19.30;99.90;;;;;;6257586;22;20019;-92
2022/07/23 12:17:10;;;;;;;1.13;0.60;;;19.30;99.90;;;;;;6254831;22;20026;-93
2022/07/23 12:19:36;;;;;;;1.85;0.90;;;19.40;99.90;;;;;;6255971;22;20073;-93
2022/07/23 12:22:02;;;;;;;1.55;0.60;;;19.50;99.90;;;;;;6255272;22;20012;-93
2022/07/23 12:24:28;;;;;;;1.05;0.50;;;19.40;99.90;;;;;;6255531;22;20015;-96
2022/07/23 12:27:13;;;;;;;1.33;0.45;;;19.50;99.90;;;;;;6277981;22;20011;-94
2022/07/23 12:59:11;;;;;;;1.77;0.50;;;20.40;99.90;;;;;;6305117;22;20078;-94
2022/07/23 13:04:46;;;;;;;1.40;0.40;;;20.70;99.90;;;;;;6306989;22;20356;-94
2022/07/23 13:12:23;;;;;;;1.05;0.52;;;20.90;99.90;;;;;;6308409;22;20035;-95
2022/07/23 13:14:49;;;;;;;1.38;0.50;;;20.90;99.90;;;;;;6282346;22;20027;-95
2022/07/23 13:53:30;;;;;;;1.00;0.45;;;21.90;99.90;;;;;;6283934;22;20027;-87
2022/07/23 13:55:57;;;;;;;1.10;0.47;;;21.90;99.90;;;;;;6258814;22;20365;-89
2022/07/23 13:58:29;;;;;;;0.68;0.30;;;22.00;99.90;;;;;;6254174;22;20015;-87
2022/07/23 14:00:55;;;;;;;1.30;0.45;;;22.10;99.40;;;;;;6284159;22;20020;-89
2022/07/23 14:03:25;;;;;;;0.68;0.40;;;22.10;99.60;;;;;;6256706;22;20035;-89
2022/07/23 14:06:43;;;;;;;0.82;0.45;;;22.00;99.30;;;;;;6255891;22;20086;-89
2022/07/23 14:09:10;;;;;;;1.15;0.50;;;21.90;98.80;;;;;;6235824;22;20018;-92
2022/07/23 14:11:35;;;;;;;0.35;0.25;;;21.90;99.30;;;;;;6244447;22;20012;-90
2022/07/23 14:33:15;;;;;;;0.88;0.40;;;22.20;98.80;;;;;;6328287;22;20023;-91
2022/07/23 14:35:42;;;;;;;2.30;0.55;;;22.10;98.70;;;;;;6269988;22;20019;-95
2022/07/23 14:38:09;;;;;;;1.30;0.50;;;22.10;98.70;;;;;;6268334;22;20003;-95
2022/07/23 14:43:10;;;;;;;0.70;0.45;;;21.90;98.50;;;;;;6311475;22;20084;-92
2022/07/23 14:45:37;;;;;;;1.00;0.40;;;21.90;98.70;;;;;;6273730;22;20019;-92
2022/07/23 17:37:37;;;;;;;0.80;0.30;;;20.20;99.90;;;;;;6307509;22;20444;-95
2022/07/23 17:40:04;;;;;;;1.10;0.40;;;20.20;99.90;;;;;;6255134;22;20106;-95
2022/07/23 17:42:30;;;;;;;1.00;0.40;;;20.10;99.90;;;;;;6255711;22;20022;-96
2022/07/23 17:44:55;;;;;;;2.78;0.70;;;20.10;99.90;;;;;;6255600;22;20019;-94
2022/07/23 17:47:52;;;;;;;1.90;0.75;;;20.00;99.90;;;;;;6254997;22;20015;-94
2022/07/23 17:50:18;;;;;;;1.10;0.50;;;20.00;99.90;;;;;;6255321;22;20011;-93
2022/07/23 17:53:06;;;;;;;1.40;0.70;;;19.90;99.90;;;;;;6255450;22;20011;-93
2022/07/23 17:55:33;;;;;;;0.63;0.40;;;19.90;99.90;;;;;;6255489;22;20011;-95
2022/07/23 17:58:28;;;;;;;;;;;19.90;99.90;;;;;;6281578;22;20030;-95
2022/07/23 18:00:54;;;;;;;1.30;0.50;;;19.90;99.90;;;;;;6255206;22;19946;-94
2022/07/23 18:03:20;;;;;;;2.72;0.60;;;19.80;99.90;;;;;;6255625;22;20038;-95
2022/07/23 18:06:21;;;;;;;0.75;0.40;;;19.80;99.90;;;;;;6255098;22;20725;-92
2022/07/23 18:09:00;;;;;;;0.98;0.60;;;19.80;99.90;;;;;;6275061;22;20015;-92
2022/07/23 18:11:39;;;;;;;;;;;;;;;;;;;;;
2022/07/23 18:14:42;;;;;;;0.80;0.43;;;19.70;99.90;;;;;;6243930;23;20095;-94
2022/07/23 18:17:10;;;;;;;0.90;0.60;;;19.70;99.90;;;;;;6174409;23;20012;-96
2022/07/23 18:19:36;;;;;;;1.55;0.40;;;19.70;99.90;;;;;;6193579;23;20051;-94
2022/07/23 18:22:02;;;;;;;1.05;0.47;;;19.70;99.90;;;;;;6219122;23;20012;-95
2022/07/23 18:24:28;;;;;;;1.55;1.05;;;19.70;99.90;;;;;;6193949;23;20020;-94
2022/07/23 18:26:53;;;;;;;1.02;0.40;;;19.70;99.90;;;;;;6193826;23;20437;-95
2022/07/23 18:31:51;;;;;;;1.02;0.50;;;19.60;99.90;;;;;;6276658;22;20376;-94
2022/07/23 18:34:42;;;;;;;0.82;0.47;;;19.60;99.90;;;;;;6224646;22;20063;-94
2022/07/23 18:45:57;;;;;;;1.75;0.90;;;19.50;99.90;;;;;;6260434;22;20037;-92
2022/07/23 18:48:23;;;;;;;1.73;0.70;;;19.50;99.90;;;;;;6286314;22;20103;-94
2022/07/23 18:51:34;;;;;;;;;;;;;;;;;;;;;
2022/07/23 18:54:12;;;;;;;2.67;0.80;;;19.40;99.90;;;;;;6311651;22;20028;-94
2022/07/23 18:56:38;;;;;;;1.30;0.70;;;19.30;99.90;;;;;;6285598;22;20022;-93
2022/07/23 18:59:04;;;;;;;1.90;0.95;;;19.30;99.90;;;;;;6286076;22;20015;-93
2022/07/23 19:01:30;;;;;;;;;;;19.20;99.90;;;;;;6286561;22;20015;-95
2022/07/23 19:03:59;;;;;;;2.50;0.60;;;19.20;99.90;;;;;;6311771;22;19925;-94
2022/07/23 19:06:46;;;;;;;1.58;0.70;;;19.10;99.90;;;;;;6285867;22;20026;-89
2022/07/23 19:40:50;;;;;;;2.47;1.10;;;18.10;99.90;;;;;;6285606;22;20084;-93
2022/07/23 19:43:16;;;;;;;2.65;1.27;;;18.00;99.90;;;;;;6231566;22;20349;-96
2022/07/23 19:46:09;;;;;;;2.85;1.10;;;17.90;99.90;;;;;;6263094;22;20019;-93
2022/07/23 19:48:35;;;;;;;3.17;1.17;;;17.80;99.90;;;;;;6263440;22;20034;-94
2022/07/23 19:51:01;;;;;;;3.22;1.40;;;17.80;99.90;;;;;;6266516;22;20019;-96
2022/07/23 19:53:27;;;;;;;3.05;1.23;;;17.70;99.90;;;;;;6265881;22;20019;-94
2022/07/23 19:55:53;;;;;;;4.22;1.30;;;17.70;99.90;;;;;;6265343;22;20015;-96
2022/07/23 19:58:18;;;;;;;2.65;1.00;;;17.60;99.90;;;;;;6262075;22;20065;-92
2022/07/23 20:00:44;;;;;;;3.45;1.33;;;17.60;99.90;;;;;;6259232;22;20015;-92
2022/07/23 20:03:10;;;;;;;2.90;1.38;;;17.50;99.90;;;;;;6264285;22;20348;-94
2022/07/23 20:05:35;;;;;;;3.22;1.58;;;17.50;99.90;;;;;;6261792;22;20007;-96
2022/07/23 20:08:01;;;;;;;2.70;1.02;;;17.40;99.90;;;;;;6260922;22;20038;-96
2022/07/23 20:10:27;;;;;;;3.50;1.30;;;17.40;99.90;;;;;;6262875;22;20008;-92
2022/07/23 20:12:53;;;;;;;2.90;1.27;;;17.30;99.90;;;;;;6275083;22;19999;-92
2022/07/23 20:15:20;;;;;;;3.28;1.52;;;17.20;99.90;;;;;;6283348;22;20026;-91
2022/07/23 20:17:46;;;;;;;3.83;1.45;;;17.20;99.90;;;;;;6274898;22;20007;-92
2022/07/23 20:20:12;;;;;;;3.05;1.10;;;17.20;99.90;;;;;;6266358;22;20016;-96
2022/07/23 20:22:38;;;;;;;3.40;1.33;;;17.10;99.90;;;;;;6268819;22;20023;-95
2022/07/23 20:25:05;;;;;;;3.33;1.63;;;17.10;99.90;;;;;;6267396;22;20003;-96
2022/07/23 20:27:31;;;;;;;3.60;1.80;;;17.00;99.90;;;;;;6266138;22;20047;-92
2022/07/23 20:29:57;;;;;;;3.58;1.52;;;17.00;99.90;;;;;;6266364;22;20019;-96
2022/07/23 20:32:22;;;;;;;2.78;1.30;;;17.00;99.90;;;;;;6269937;22;20022;-96
2022/07/23 20:34:48;;;;;;;3.42;1.58;;;16.90;99.90;;;;;;6266070;22;20057;-94
2022/07/23 20:37:15;;;;;;;3.38;1.60;;;16.90;99.90;;;;;;6263091;22;20015;-94
2022/07/23 20:39:42;;;;;;;3.25;1.48;;;16.90;99.90;;;;;;6269445;22;20045;-93
2022/07/23 20:42:07;;;;;;;3.33;1.52;;;16.90;99.90;;;;;;6244251;22;20022;-94
2022/07/23 20:44:33;;;;;;;3.65;1.70;;;16.80;99.90;;;;;;6238694;22;20019;-93
2022/07/23 20:46:59;;;;;;;3.40;1.45;;;16.80;99.90;;;;;;6242952;22;20016;-93
2022/07/23 20:59:46;;;;;;;2.92;1.48;;;16.60;99.90;;;;;;6308790;22;20026;-91
2022/07/23 21:02:12;;;;;;;3.10;1.40;;;16.60;99.90;;;;;;6256071;22;20023;-92
2022/07/23 21:04:38;;;;;;;3.20;1.58;;;16.60;99.90;;;;;;6255830;22;20073;-91
2022/07/23 21:07:43;;;;;;;4.05;1.55;;;16.50;99.90;;;;;;6256071;22;20015;-88
2022/07/23 21:30:11;;;;;;;3.35;1.90;;;16.20;99.90;;;;;;6308023;22;20023;-89
2022/07/23 21:32:37;;;;;;;3.10;1.50;;;16.10;99.90;;;;;;6255927;22;20101;-89
2022/07/23 21:35:04;;;;;;;;;;;16.10;99.90;;;;;;6255873;22;20011;-91
2022/07/23 21:37:30;;;;;;;4.75;1.88;;;16.10;99.90;;;;;;6255882;22;19915;-90
2022/07/23 21:42:31;;;;;;;4.38;1.83;;;16.10;99.90;;;;;;6311481;22;20027;-93
2022/07/23 21:44:57;;;;;;;3.33;1.52;;;16.00;99.90;;;;;;6285061;22;20468;-95
2022/07/23 21:47:23;;;;;;;3.03;1.50;;;16.00;99.90;;;;;;6256664;22;20022;-96
2022/07/23 21:49:49;;;;;;;4.05;1.60;;;16.00;99.90;;;;;;6261175;22;20019;-96
2022/07/23 21:52:14;;;;;;;3.08;1.48;;;16.00;99.90;;;;;;6262360;22;20015;-96
2022/07/23 21:54:40;;;;;;;2.83;1.25;;;16.00;99.90;;;;;;6290274;22;20022;-95
2022/07/23 21:57:06;;;;;;;2.67;1.30;;;15.90;99.90;;;;;;6259910;22;20018;-94
2022/07/23 21:59:31;;;;;;;3.90;1.70;;;15.90;99.90;;;;;;6259730;22;20019;-93
2022/07/23 22:01:58;;;;;;;2.57;1.30;;;15.80;99.90;;;;;;6288179;22;20011;-96
2022/07/23 22:04:24;;;;;;;3.58;1.60;;;15.80;99.90;;;;;;6285105;22;20315;-90
2022/07/23 22:06:50;;;;;;;3.25;1.40;;;15.80;99.90;;;;;;6283926;22;20149;-92
2022/07/23 22:09:15;;;;;;;2.72;1.30;;;15.80;99.90;;;;;;6286969;22;20096;-96
2022/07/23 22:11:41;;;;;;;4.60;1.85;;;15.70;99.90;;;;;;6262823;22;20011;-96
2022/07/23 22:14:10;;;;;;;3.92;1.95;;;15.70;99.90;;;;;;6296726;22;20019;-89
2022/07/23 22:19:02;;;;;;;6.83;3.43;;;15.60;99.90;;;;;;6317545;22;20053;-88
2022/07/23 22:21:30;;;;;;;7.18;3.65;;;15.60;99.90;;;;;;6293132;22;20019;-88
2022/07/23 22:23:55;;;;;;;7.07;3.70;;;15.60;99.90;;;;;;6293927;22;20020;-88
2022/07/23 22:26:21;;;;;;;6.25;3.17;;;15.60;99.90;;;;;;6294949;22;20318;-91
2022/07/23 22:28:49;;;;;;;5.53;2.67;;;15.60;99.90;;;;;;6291217;22;20015;-88
2022/07/23 22:31:15;;;;;;;5.65;2.50;;;15.60;99.90;;;;;;6293171;22;20026;-89
2022/07/23 22:33:41;;;;;;;5.40;2.60;;;15.60;99.90;;;;;;6272887;22;20018;-88
2022/07/23 22:36:07;;;;;;;4.13;2.00;;;15.60;99.90;;;;;;6293973;22;20095;-88
2022/07/23 22:38:33;;;;;;;3.67;1.98;;;15.70;99.90;;;;;;6317041;22;20455;-96
2022/07/23 22:40:59;;;;;;;4.15;1.70;;;15.70;99.90;;;;;;6314342;22;20019;-89
2022/07/23 22:43:24;;;;;;;4.50;1.77;;;15.70;99.90;;;;;;6310942;22;20015;-92
2022/07/23 22:46:09;;;;;;;3.03;1.38;;;15.70;99.90;;;;;;6315731;22;20283;-91
2022/07/23 22:48:36;;;;;;;3.47;1.20;;;15.80;99.90;;;;;;6291361;22;20015;-92
2022/07/23 22:51:02;;;;;;;2.92;1.42;;;15.80;99.90;;;;;;6326204;22;20022;-96
2022/07/23 22:53:28;;;;;;;2.90;1.33;;;15.80;99.90;;;;;;6330265;22;20064;-96
2022/07/23 22:55:53;;;;;;;2.78;1.33;;;15.80;99.90;;;;;;6284629;22;20039;-96
2022/07/23 22:58:19;;;;;;;2.90;1.20;;;15.70;99.90;;;;;;6214071;23;20027;-96
2022/07/23 23:08:35;;;;;;;4.57;1.40;;;15.80;99.90;;;;;;6329896;22;20027;-96
2022/07/23 23:11:03;;;;;;;2.72;1.30;;;15.80;99.90;;;;;;6336797;22;20041;-96
2022/07/23 23:18:40;;;;;;;2.60;1.20;;;15.90;99.90;;;;;;6329424;22;20011;-94
2022/07/23 23:22:00;;;;;;;2.97;1.55;;;15.90;99.90;;;;;;6276806;22;20030;-96
2022/07/23 23:24:27;;;;;;;3.25;1.50;;;15.90;99.90;;;;;;6306858;22;20056;-96
2022/07/23 23:26:53;;;;;;;3.30;1.40;;;15.80;99.90;;;;;;6304837;22;20062;-95
2022/07/23 23:29:19;;;;;;;3.20;1.50;;;15.80;99.90;;;;;;6276289;22;20405;-95
2022/07/23 23:31:45;;;;;;;2.90;1.20;;;15.80;99.90;;;;;;6302410;22;20049;-96
2022/07/23 23:34:10;;;;;;;2.83;1.38;;;15.80;99.90;;;;;;6265058;22;20015;-91
2022/07/23 23:36:39;;;;;;;3.53;1.40;;;15.70;99.90;;;;;;6295403;22;20039;-95
2022/07/23 23:39:05;;;;;;;4.10;1.30;;;15.70;99.90;;;;;;6293301;22;20042;-96
2022/07/23 23:52:34;;;;;;;3.30;1.13;;;15.50;99.90;;;;;;6282273;22;20023;-95
2022/07/23 23:55:00;;;;;;;2.35;1.02;;;15.50;99.90;;;;;;6256288;22;20059;-95
2022/07/23 23:57:26;;;;;;;4.22;1.35;;;15.50;99.90;;;;;;6256558;22;20026;-92
2022/07/23 23:59:51;;;;;;;3.75;2.17;;;15.60;99.90;;;;;;6256393;22;20094;-95
